Time;durP1;ratioP1;P1;durP2;ratioP2;P2;SDS_P1;SDS_P2;PMS_P1;PMS_P2;Temp;Humidity;BMP_temperature;BMP_pressure;BME280_temperature;BME280_humidity;BME280_pressure;Samples;Min_cycle;Max_cycle;Signal;HPM_P1;HPM_P2
2022/04/24 00:00:34;;;;;;;;;16.67;16.33;;;;;;;;5086770;27;45702;-81
2022/04/24 00:02:59;;;;;;;;;23.33;19.00;;;;;;;;5099155;27;45479;-82
2022/04/24 00:05:24;;;;;;;;;17.33;16.33;;;;;;;;5078035;27;45549;-74
2022/04/24 00:07:49;;;;;;;;;15.67;14.67;;;;;;;;5076826;27;47146;-81
2022/04/24 00:10:15;;;;;;;;;20.67;20.67;;;;;;;;5076099;27;45401;-81
2022/04/24 00:12:40;;;;;;;;;14.67;14.67;;;;;;;;5095553;27;45281;-82
2022/04/24 00:15:06;;;;;;;;;17.00;13.67;;;;;;;;5096139;27;45711;-82
2022/04/24 00:17:31;;;;;;;;;18.00;14.00;;;;;;;;5077565;27;46731;-81
2022/04/24 00:19:56;;;;;;;;;22.00;17.67;;;;;;;;5078622;27;45674;-81
2022/04/24 00:22:22;;;;;;;;;20.00;18.00;;;;;;;;5074951;28;45315;-81
2022/04/24 00:24:47;;;;;;;;;14.67;13.33;;;;;;;;5075303;28;45365;-82
2022/04/24 00:27:12;;;;;;;;;15.00;15.00;;;;;;;;5075652;28;46200;-80
2022/04/24 00:29:37;;;;;;;;;18.67;18.67;;;;;;;;5074864;27;45666;-81
2022/04/24 00:32:03;;;;;;;;;17.00;14.33;;;;;;;;5080291;27;45736;-75
2022/04/24 00:34:29;;;;;;;;;16.67;16.67;;;;;;;;5057838;27;46109;-76
2022/04/24 00:36:54;;;;;;;;;17.67;14.67;;;;;;;;5080200;27;46985;-75
2022/04/24 00:39:19;;;;;;;;;16.33;14.67;;;;;;;;5078336;27;47061;-76
2022/04/24 00:41:48;;;;;;;;;17.67;14.67;;;;;;;;5092754;27;45845;-82
2022/04/24 00:44:17;;;;;;;;;15.67;15.67;;;;;;;;5093802;27;45282;-76
2022/04/24 00:47:02;;;;;;;;;24.33;20.00;;;;;;;;5074588;27;47760;-77
2022/04/24 00:49:28;;;;;;;;;15.67;15.67;;;;;;;;5074042;27;45389;-80
2022/04/24 00:51:54;;;;;;;;;16.67;16.67;;;;;;;;5092660;27;45550;-75
2022/04/24 00:54:20;;;;;;;;;21.00;19.00;;;;;;;;5074766;27;46182;-75
2022/04/24 00:56:45;;;;;;;;;19.00;17.33;;;;;;;;5094354;27;46426;-75
2022/04/24 00:59:11;;;;;;;;;18.67;17.00;;;;;;;;5074988;27;45874;-74
2022/04/24 01:01:37;;;;;;;;;16.67;15.67;;;;;;;;5093411;27;45830;-74
2022/04/24 01:04:04;;;;;;;;;14.67;14.00;;;;;;;;5074495;27;46064;-78
2022/04/24 01:06:33;;;;;;;;;18.33;16.67;;;;;;;;5075729;27;48209;-82
2022/04/24 01:09:11;;;;;;;;;19.67;17.67;;;;;;;;5094629;27;45497;-75
2022/04/24 01:11:36;;;;;;;;;19.67;15.33;;;;;;;;5093608;27;45705;-77
2022/04/24 01:14:01;;;;;;;;;22.00;17.00;;;;;;;;5093295;27;46452;-75
2022/04/24 01:16:27;;;;;;;;;18.00;17.00;;;;;;;;5082294;27;46796;-82
2022/04/24 01:18:52;;;;;;;;;23.00;18.00;;;;;;;;5080940;27;45421;-76
2022/04/24 01:21:18;;;;;;;;;20.00;18.33;;;;;;;;5073957;27;45443;-80
2022/04/24 01:23:43;;;;;;;;;14.67;14.67;;;;;;;;5075126;27;45391;-81
2022/04/24 01:26:08;;;;;;;;;15.33;14.67;;;;;;;;5057340;28;47878;-81
2022/04/24 01:28:34;;;;;;;;;16.33;15.00;;;;;;;;5060927;28;45629;-81
2022/04/24 01:30:59;;;;;;;;;19.33;16.33;;;;;;;;5066939;28;45505;-75
2022/04/24 01:33:25;;;;;;;;;18.00;16.67;;;;;;;;5077504;28;45347;-81
2022/04/24 01:35:50;;;;;;;;;16.67;14.33;;;;;;;;5073308;27;47095;-77
2022/04/24 01:38:16;;;;;;;;;19.33;15.67;;;;;;;;5097701;27;45715;-82
2022/04/24 01:40:41;;;;;;;;;19.00;14.33;;;;;;;;5090135;27;45400;-79
2022/04/24 01:43:06;;;;;;;;;15.33;15.33;;;;;;;;5072122;28;45438;-79
2022/04/24 01:45:32;;;;;;;;;17.00;16.33;;;;;;;;5054521;28;46273;-77
2022/04/24 01:47:57;;;;;;;;;13.33;13.33;;;;;;;;5060313;27;45406;-78
2022/04/24 01:50:22;;;;;;;;;17.00;15.00;;;;;;;;5093351;27;45367;-78
2022/04/24 01:52:48;;;;;;;;;14.00;14.00;;;;;;;;5093284;27;45404;-79
2022/04/24 01:55:13;;;;;;;;;18.00;14.67;;;;;;;;5092391;27;45940;-76
2022/04/24 01:57:38;;;;;;;;;15.00;14.33;;;;;;;;5092163;27;45884;-78
2022/04/24 02:00:04;;;;;;;;;14.67;11.67;;;;;;;;5093683;27;45496;-82
2022/04/24 02:02:29;;;;;;;;;16.33;14.00;;;;;;;;5078073;27;46042;-81
2022/04/24 02:04:54;;;;;;;;;13.67;13.67;;;;;;;;5076419;27;48105;-82
2022/04/24 02:07:19;;;;;;;;;14.67;14.00;;;;;;;;5074443;27;45695;-78
2022/04/24 02:09:45;;;;;;;;;18.67;13.00;;;;;;;;5075745;27;45469;-78
2022/04/24 02:12:10;;;;;;;;;14.00;12.67;;;;;;;;5093806;27;45521;-77
2022/04/24 02:14:35;;;;;;;;;9.67;9.67;;;;;;;;5093370;27;46505;-84
2022/04/24 02:17:01;;;;;;;;;14.67;14.67;;;;;;;;5076292;27;45446;-82
2022/04/24 02:19:26;;;;;;;;;16.00;16.00;;;;;;;;5066527;27;45872;-82
2022/04/24 02:21:51;;;;;;;;;12.67;12.67;;;;;;;;5076594;27;45622;-79
2022/04/24 02:24:17;;;;;;;;;12.67;12.67;;;;;;;;5074148;27;48320;-79
2022/04/24 02:26:42;;;;;;;;;16.33;13.00;;;;;;;;5092436;27;45772;-78
2022/04/24 02:29:07;;;;;;;;;18.00;14.67;;;;;;;;5095760;27;45751;-84
2022/04/24 02:31:33;;;;;;;;;17.00;13.33;;;;;;;;5096088;27;45889;-82
2022/04/24 02:33:58;;;;;;;;;14.67;13.67;;;;;;;;5095463;27;45815;-81
2022/04/24 02:36:23;;;;;;;;;16.33;14.67;;;;;;;;5061552;28;45864;-81
2022/04/24 02:38:48;;;;;;;;;12.33;11.67;;;;;;;;5058662;28;45783;-76
2022/04/24 02:41:14;;;;;;;;;13.33;13.33;;;;;;;;5087134;27;45462;-82
2022/04/24 02:43:39;;;;;;;;;14.00;14.00;;;;;;;;5098491;27;45618;-82
2022/04/24 02:46:04;;;;;;;;;18.00;13.50;;;;;;;;5095604;27;45385;-82
2022/04/24 02:48:30;;;;;;;;;13.00;13.00;;;;;;;;5084036;27;45401;-82
2022/04/24 02:50:55;;;;;;;;;15.33;14.00;;;;;;;;5080288;28;45373;-83
2022/04/24 02:53:20;;;;;;;;;17.33;15.00;;;;;;;;5059933;28;48259;-81
2022/04/24 02:55:46;;;;;;;;;14.33;14.33;;;;;;;;5080014;28;45692;-81
2022/04/24 02:58:11;;;;;;;;;17.00;15.67;;;;;;;;5075925;28;45752;-82
2022/04/24 03:00:42;;;;;;;;;16.33;14.67;;;;;;;;5058880;28;45796;-82
2022/04/24 03:03:07;;;;;;;;;16.00;14.33;;;;;;;;5059151;28;46719;-83
2022/04/24 03:05:33;;;;;;;;;17.33;16.00;;;;;;;;5059467;28;45474;-81
2022/04/24 03:07:59;;;;;;;;;18.00;17.00;;;;;;;;5077848;28;45423;-78
2022/04/24 03:10:25;;;;;;;;;12.33;9.33;;;;;;;;5076647;28;45721;-77
2022/04/24 03:12:50;;;;;;;;;19.00;15.33;;;;;;;;5056961;28;47327;-82
2022/04/24 03:15:15;;;;;;;;;14.00;12.67;;;;;;;;5074746;28;45365;-82
2022/04/24 03:17:41;;;;;;;;;17.67;17.33;;;;;;;;5060376;28;45441;-81
2022/04/24 03:20:07;;;;;;;;;19.67;18.00;;;;;;;;5059527;28;46352;-81
2022/04/24 03:22:33;;;;;;;;;14.67;13.67;;;;;;;;5058495;28;47147;-81
2022/04/24 03:24:59;;;;;;;;;16.00;16.00;;;;;;;;5077132;28;45484;-78
2022/04/24 03:27:25;;;;;;;;;18.33;14.33;;;;;;;;5076564;28;45794;-81
2022/04/24 03:29:50;;;;;;;;;19.33;15.00;;;;;;;;5058368;28;45638;-77
2022/04/24 03:32:15;;;;;;;;;18.00;16.00;;;;;;;;5078546;28;46399;-82
2022/04/24 03:34:41;;;;;;;;;15.67;15.67;;;;;;;;5066136;27;45926;-78
2022/04/24 03:37:06;;;;;;;;;17.33;14.33;;;;;;;;5099049;27;45771;-80
2022/04/24 03:39:31;;;;;;;;;17.00;15.67;;;;;;;;5095610;27;45518;-77
2022/04/24 03:41:56;;;;;;;;;17.33;15.33;;;;;;;;5079818;27;45488;-83
2022/04/24 03:44:22;;;;;;;;;15.00;15.00;;;;;;;;5077516;28;45407;-82
2022/04/24 03:46:47;;;;;;;;;22.00;18.33;;;;;;;;5062910;27;45431;-81
2022/04/24 03:49:13;;;;;;;;;19.67;16.00;;;;;;;;5098784;27;45485;-83
2022/04/24 03:51:38;;;;;;;;;18.67;17.67;;;;;;;;5097883;27;45791;-82
2022/04/24 03:54:04;;;;;;;;;19.33;16.67;;;;;;;;5098985;27;45842;-83
2022/04/24 03:56:31;;;;;;;;;18.67;17.33;;;;;;;;5096676;27;45392;-83
2022/04/24 03:58:57;;;;;;;;;19.00;16.33;;;;;;;;5097169;27;45660;-82
2022/04/24 04:01:22;;;;;;;;;21.33;17.33;;;;;;;;5076000;27;47622;-77
2022/04/24 04:03:47;;;;;;;;;18.00;16.67;;;;;;;;5078746;27;45368;-77
2022/04/24 04:06:13;;;;;;;;;19.33;17.67;;;;;;;;5073507;28;45674;-77
2022/04/24 04:08:38;;;;;;;;;19.00;17.33;;;;;;;;5077225;27;45722;-78
2022/04/24 04:11:03;;;;;;;;;18.33;16.33;;;;;;;;5062217;27;46943;-77
2022/04/24 04:13:28;;;;;;;;;16.67;16.67;;;;;;;;5077707;27;46029;-77
2022/04/24 04:15:54;;;;;;;;;16.67;15.00;;;;;;;;5075852;27;45984;-77
2022/04/24 04:18:19;;;;;;;;;18.00;18.00;;;;;;;;5074598;27;45925;-76
2022/04/24 04:20:44;;;;;;;;;18.00;18.00;;;;;;;;5060392;27;47485;-77
2022/04/24 04:23:10;;;;;;;;;18.67;18.33;;;;;;;;5078275;27;45759;-83
2022/04/24 04:25:36;;;;;;;;;22.33;20.00;;;;;;;;5083382;27;45484;-76
2022/04/24 04:28:02;;;;;;;;;22.00;20.00;;;;;;;;5076960;27;45521;-77
2022/04/24 04:30:27;;;;;;;;;22.00;18.33;;;;;;;;5073976;27;46583;-78
2022/04/24 04:32:53;;;;;;;;;19.33;18.00;;;;;;;;5078074;27;45407;-79
2022/04/24 04:35:22;;;;;;;;;18.33;18.00;;;;;;;;5080065;27;45968;-76
2022/04/24 04:37:48;;;;;;;;;24.67;19.67;;;;;;;;5072865;27;45442;-77
2022/04/24 04:40:14;;;;;;;;;18.33;17.33;;;;;;;;5078875;27;45410;-78
2022/04/24 04:42:39;;;;;;;;;18.33;16.00;;;;;;;;5084830;27;46066;-82
2022/04/24 04:45:06;;;;;;;;;22.33;18.67;;;;;;;;5082387;27;45526;-82
2022/04/24 04:47:31;;;;;;;;;25.67;19.00;;;;;;;;5061668;27;46872;-81
2022/04/24 04:49:56;;;;;;;;;23.67;21.00;;;;;;;;5075835;27;47098;-76
2022/04/24 04:52:22;;;;;;;;;21.67;20.67;;;;;;;;5088381;27;45761;-83
2022/04/24 04:54:55;;;;;;;;;19.00;18.00;;;;;;;;5091220;27;45861;-87
2022/04/24 04:58:02;;;;;;;;;;;;;;;;;;;;;
2022/04/24 05:07:14;;;;;;;;;23.00;22.00;;;;;;;;4958891;28;45596;-83
2022/04/24 05:10:02;;;;;;;;;23.67;23.67;;;;;;;;4964944;28;45582;-86
2022/04/24 05:13:29;;;;;;;;;20.00;18.67;;;;;;;;4964403;28;46066;-87
2022/04/24 05:16:09;;;;;;;;;22.00;20.33;;;;;;;;4953795;28;45349;-83
2022/04/24 05:21:54;;;;;;;;;24.00;24.00;;;;;;;;4966857;28;45750;-83
2022/04/24 05:24:26;;;;;;;;;22.33;20.67;;;;;;;;4975720;28;45941;-82
2022/04/24 05:27:37;;;;;;;;;18.33;18.33;;;;;;;;4996366;28;44986;-85
2022/04/24 05:33:20;;;;;;;;;23.00;19.33;;;;;;;;4984020;28;46073;-86
2022/04/24 05:35:45;;;;;;;;;22.67;18.00;;;;;;;;4993960;28;46303;-81
2022/04/24 05:38:13;;;;;;;;;17.00;14.33;;;;;;;;5064565;27;45532;-79
2022/04/24 05:40:41;;;;;;;;;16.33;16.33;;;;;;;;5081917;27;45794;-83
2022/04/24 05:43:07;;;;;;;;;18.33;17.67;;;;;;;;5086738;27;45354;-82
2022/04/24 05:45:32;;;;;;;;;16.67;15.67;;;;;;;;5072247;27;45962;-82
2022/04/24 05:47:58;;;;;;;;;20.00;16.00;;;;;;;;5083311;27;45486;-80
2022/04/24 05:50:24;;;;;;;;;19.00;17.00;;;;;;;;5064983;27;45846;-80
2022/04/24 05:52:50;;;;;;;;;16.33;13.00;;;;;;;;5080670;27;46025;-80
2022/04/24 05:55:15;;;;;;;;;20.33;17.00;;;;;;;;5077350;27;45592;-79
2022/04/24 05:57:40;;;;;;;;;17.67;14.67;;;;;;;;5072399;27;45895;-81
2022/04/24 06:00:09;;;;;;;;;14.00;14.00;;;;;;;;5084667;27;45785;-84
2022/04/24 06:02:35;;;;;;;;;16.00;14.67;;;;;;;;5081523;27;45546;-81
2022/04/24 06:05:02;;;;;;;;;18.00;15.67;;;;;;;;5068912;27;48174;-82
2022/04/24 06:07:27;;;;;;;;;18.00;17.00;;;;;;;;5066347;27;45563;-80
2022/04/24 06:09:53;;;;;;;;;17.33;17.00;;;;;;;;5075162;27;45663;-80
2022/04/24 06:12:18;;;;;;;;;14.67;14.67;;;;;;;;5080064;27;45529;-82
2022/04/24 06:14:44;;;;;;;;;16.33;15.67;;;;;;;;5060469;27;46398;-81
2022/04/24 06:17:10;;;;;;;;;18.00;14.33;;;;;;;;5067034;27;45618;-81
2022/04/24 06:19:38;;;;;;;;;20.00;18.33;;;;;;;;5084180;27;45661;-82
2022/04/24 06:22:04;;;;;;;;;20.33;18.00;;;;;;;;5073615;27;45902;-80
2022/04/24 06:24:29;;;;;;;;;15.33;15.33;;;;;;;;5081164;27;46527;-81
2022/04/24 06:26:56;;;;;;;;;14.33;14.33;;;;;;;;5073158;27;45838;-81
2022/04/24 06:29:21;;;;;;;;;21.67;19.33;;;;;;;;5086282;27;45572;-82
2022/04/24 06:31:47;;;;;;;;;15.00;14.00;;;;;;;;5070859;27;46436;-82
2022/04/24 06:34:14;;;;;;;;;16.00;16.00;;;;;;;;5082923;27;45716;-82
2022/04/24 06:36:40;;;;;;;;;17.33;15.67;;;;;;;;5068874;27;45929;-80
2022/04/24 06:39:06;;;;;;;;;16.00;13.33;;;;;;;;5067155;27;45474;-80
2022/04/24 06:41:32;;;;;;;;;17.67;17.33;;;;;;;;5069237;27;46999;-82
2022/04/24 06:44:02;;;;;;;;;21.67;19.33;;;;;;;;5081899;27;46818;-82
2022/04/24 06:50:09;;;;;;;;;17.33;16.67;;;;;;;;5081471;27;45936;-81
2022/04/24 06:53:02;;;;;;;;;19.00;16.67;;;;;;;;5061072;27;46090;-81
2022/04/24 07:02:24;;;;;;;;;22.33;20.33;;;;;;;;4966570;28;45989;-83
2022/04/24 07:05:19;;;;;;;;;23.67;20.00;;;;;;;;4972187;28;45692;-82
2022/04/24 07:07:46;;;;;;;;;21.00;17.67;;;;;;;;5021317;27;46190;-82
2022/04/24 07:10:12;;;;;;;;;25.33;22.33;;;;;;;;5091971;27;45536;-83
2022/04/24 07:13:05;;;;;;;;;21.33;18.33;;;;;;;;5079808;27;45857;-84
2022/04/24 07:15:31;;;;;;;;;26.33;25.33;;;;;;;;5060496;27;46721;-83
2022/04/24 07:17:58;;;;;;;;;21.67;20.67;;;;;;;;5069436;27;45855;-84
2022/04/24 07:20:29;;;;;;;;;18.67;17.00;;;;;;;;5065273;27;45805;-82
2022/04/24 07:26:32;;;;;;;;;20.00;20.00;;;;;;;;5036551;28;45434;-81
2022/04/24 07:29:01;;;;;;;;;24.67;21.33;;;;;;;;5031717;28;47758;-83
2022/04/24 07:31:53;;;;;;;;;25.00;25.00;;;;;;;;5038119;28;45935;-84
2022/04/24 07:34:31;;;;;;;;;27.67;26.67;;;;;;;;5059807;27;45835;-83
2022/04/24 07:37:28;;;;;;;;;26.00;26.00;;;;;;;;5089736;27;45410;-84
2022/04/24 07:39:59;;;;;;;;;28.67;24.33;;;;;;;;5072808;27;45862;-83
2022/04/24 07:42:27;;;;;;;;;25.00;22.00;;;;;;;;5076615;27;45927;-82
2022/04/24 07:44:59;;;;;;;;;21.33;19.00;;;;;;;;5068236;27;45465;-84
2022/04/24 07:47:34;;;;;;;;;33.00;30.00;;;;;;;;5026918;27;45554;-83
2022/04/24 07:50:00;;;;;;;;;27.00;24.33;;;;;;;;5064536;27;48128;-84
2022/04/24 07:52:25;;;;;;;;;27.00;25.00;;;;;;;;5084170;27;47513;-82
2022/04/24 07:55:10;;;;;;;;;26.67;26.00;;;;;;;;5090669;27;45923;-83
2022/04/24 07:57:39;;;;;;;;;26.67;25.67;;;;;;;;5079808;27;45330;-83
2022/04/24 08:00:09;;;;;;;;;30.33;27.33;;;;;;;;5074994;27;47974;-84
2022/04/24 08:02:56;;;;;;;;;24.33;24.00;;;;;;;;5092550;27;45517;-84
2022/04/24 08:05:25;;;;;;;;;20.33;20.33;;;;;;;;5083702;27;45634;-82
2022/04/24 08:07:57;;;;;;;;;30.33;25.33;;;;;;;;5084995;27;45853;-83
2022/04/24 08:10:24;;;;;;;;;31.00;28.00;;;;;;;;5086383;27;45720;-85
2022/04/24 08:12:51;;;;;;;;;25.00;23.00;;;;;;;;5070275;27;46330;-85
2022/04/24 08:15:19;;;;;;;;;29.67;25.67;;;;;;;;5073666;27;45941;-84
2022/04/24 08:17:45;;;;;;;;;24.67;24.67;;;;;;;;5094926;27;45753;-82
2022/04/24 08:20:12;;;;;;;;;22.00;21.33;;;;;;;;5084902;27;46579;-84
2022/04/24 08:22:41;;;;;;;;;22.67;20.00;;;;;;;;5082729;27;45563;-83
2022/04/24 08:25:07;;;;;;;;;30.67;28.33;;;;;;;;5082109;27;45986;-83
2022/04/24 08:27:32;;;;;;;;;23.00;21.67;;;;;;;;5091704;27;45457;-83
2022/04/24 08:29:58;;;;;;;;;24.67;22.67;;;;;;;;5064965;27;46916;-83
2022/04/24 08:32:25;;;;;;;;;27.33;25.00;;;;;;;;5079893;27;45716;-83
2022/04/24 08:34:50;;;;;;;;;27.67;26.67;;;;;;;;5067341;28;45482;-81
2022/04/24 08:37:17;;;;;;;;;34.33;30.33;;;;;;;;5087360;27;45403;-84
2022/04/24 08:39:46;;;;;;;;;30.00;27.67;;;;;;;;5079184;27;45771;-85
2022/04/24 08:42:18;;;;;;;;;30.00;25.67;;;;;;;;5095652;27;45610;-83
2022/04/24 08:45:21;;;;;;;;;24.33;21.33;;;;;;;;5093514;27;46039;-82
2022/04/24 08:51:05;;;;;;;;;;;;;;;;;;;;;
2022/04/24 08:53:34;;;;;;;;;30.00;27.33;;;;;;;;5083301;27;72569;-82
2022/04/24 08:56:03;;;;;;;;;26.33;22.00;;;;;;;;5047554;27;45995;-83
2022/04/24 08:58:37;;;;;;;;;30.33;28.67;;;;;;;;5063857;27;46356;-82
2022/04/24 09:01:08;;;;;;;;;24.33;23.33;;;;;;;;5066552;27;46346;-81
2022/04/24 09:03:34;;;;;;;;;25.00;23.67;;;;;;;;5086470;27;45503;-82
2022/04/24 09:06:00;;;;;;;;;29.67;27.67;;;;;;;;5097444;27;45868;-82
2022/04/24 09:08:26;;;;;;;;;24.33;20.33;;;;;;;;5086941;27;45403;-83
2022/04/24 09:10:53;;;;;;;;;29.33;25.33;;;;;;;;5058669;28;47466;-83
2022/04/24 09:14:14;;;;;;;;;33.33;29.67;;;;;;;;5076686;27;45560;-82
2022/04/24 09:16:46;;;;;;;;;31.33;27.67;;;;;;;;5070106;28;45800;-81
2022/04/24 09:19:22;;;;;;;;;32.33;31.00;;;;;;;;5070597;28;45806;-75
2022/04/24 09:21:47;;;;;;;;;32.33;28.33;;;;;;;;5071308;28;46091;-82
2022/04/24 09:24:13;;;;;;;;;34.67;32.00;;;;;;;;5057112;27;45836;-81
2022/04/24 09:26:48;;;;;;;;;43.67;36.00;;;;;;;;5072781;28;45885;-82
2022/04/24 09:29:14;;;;;;;;;20.00;20.00;;;;;;;;5071686;28;45720;-76
2022/04/24 09:31:47;;;;;;;;;24.67;21.67;;;;;;;;5056373;27;47470;-80
2022/04/24 09:34:12;;;;;;;;;27.00;25.33;;;;;;;;5075438;27;45883;-73
2022/04/24 09:36:37;;;;;;;;;21.67;21.67;;;;;;;;5080279;27;45658;-82
2022/04/24 09:39:03;;;;;;;;;30.33;24.00;;;;;;;;5085307;27;45593;-83
2022/04/24 09:41:28;;;;;;;;;32.33;30.33;;;;;;;;5070592;27;48498;-81
2022/04/24 09:43:53;;;;;;;;;25.33;23.67;;;;;;;;5068496;28;45756;-81
2022/04/24 09:46:26;;;;;;;;;31.67;29.00;;;;;;;;5074756;27;45777;-75
2022/04/24 09:48:52;;;;;;;;;26.33;24.00;;;;;;;;5066649;27;45568;-75
2022/04/24 09:51:17;;;;;;;;;25.00;20.67;;;;;;;;5073935;27;45592;-76
2022/04/24 09:53:44;;;;;;;;;24.00;23.33;;;;;;;;5084567;27;45737;-81
2022/04/24 09:56:09;;;;;;;;;25.00;22.67;;;;;;;;5068689;27;45899;-80
2022/04/24 09:58:37;;;;;;;;;25.00;19.67;;;;;;;;5087539;27;45607;-79
2022/04/24 10:01:04;;;;;;;;;26.00;24.33;;;;;;;;5077832;27;45552;-80
2022/04/24 10:03:29;;;;;;;;;21.67;20.67;;;;;;;;5085879;27;45597;-82
2022/04/24 10:05:55;;;;;;;;;24.67;24.00;;;;;;;;5066739;27;45899;-80
2022/04/24 10:08:21;;;;;;;;;22.67;21.67;;;;;;;;5077460;27;45689;-81
2022/04/24 10:10:46;;;;;;;;;29.00;24.33;;;;;;;;5078499;27;45563;-82
2022/04/24 10:13:12;;;;;;;;;26.67;22.00;;;;;;;;5059914;27;45842;-78
2022/04/24 10:15:45;;;;;;;;;26.33;26.33;;;;;;;;5074410;27;45665;-77
2022/04/24 10:18:31;;;;;;;;;25.67;24.00;;;;;;;;5069567;27;45851;-76
2022/04/24 10:21:15;;;;;;;;;26.33;24.33;;;;;;;;5075219;27;47805;-79
2022/04/24 10:23:40;;;;;;;;;30.33;28.33;;;;;;;;5070110;27;45954;-78
2022/04/24 10:26:17;;;;;;;;;24.00;22.33;;;;;;;;5076805;27;45939;-78
2022/04/24 10:28:46;;;;;;;;;24.33;24.33;;;;;;;;5053819;27;45926;-77
2022/04/24 10:31:12;;;;;;;;;25.33;22.67;;;;;;;;5066219;28;46268;-82
2022/04/24 10:33:40;;;;;;;;;22.67;18.67;;;;;;;;5061651;27;45505;-81
2022/04/24 10:36:05;;;;;;;;;22.00;20.00;;;;;;;;5086071;27;45864;-82
2022/04/24 10:38:33;;;;;;;;;21.67;21.00;;;;;;;;5085236;27;45785;-81
2022/04/24 10:40:58;;;;;;;;;24.00;22.67;;;;;;;;5065811;27;48931;-79
2022/04/24 10:43:25;;;;;;;;;24.00;23.00;;;;;;;;5087047;27;45866;-80
2022/04/24 10:45:52;;;;;;;;;29.00;25.67;;;;;;;;5085882;27;45959;-84
2022/04/24 10:48:38;;;;;;;;;22.33;20.00;;;;;;;;5084872;27;46646;-81
2022/04/24 10:51:05;;;;;;;;;22.33;21.00;;;;;;;;5064902;27;45856;-82
2022/04/24 10:53:48;;;;;;;;;20.33;20.33;;;;;;;;5080969;27;45773;-78
2022/04/24 10:56:13;;;;;;;;;26.33;23.33;;;;;;;;5091981;27;45674;-82
2022/04/24 10:58:38;;;;;;;;;24.00;21.00;;;;;;;;5072446;27;46925;-80
2022/04/24 11:01:13;;;;;;;;;23.00;21.33;;;;;;;;5086502;27;45839;-82
2022/04/24 11:03:42;;;;;;;;;22.67;21.67;;;;;;;;5087875;27;45664;-82
2022/04/24 11:06:17;;;;;;;;;19.00;18.00;;;;;;;;5070606;27;45450;-81
2022/04/24 11:08:43;;;;;;;;;22.00;21.00;;;;;;;;5077780;27;46030;-83
2022/04/24 11:11:12;;;;;;;;;12.33;12.33;;;;;;;;5080283;27;46237;-79
2022/04/24 11:13:38;;;;;;;;;20.67;20.67;;;;;;;;5084314;27;45907;-79
2022/04/24 11:16:07;;;;;;;;;24.67;23.67;;;;;;;;5064882;27;45895;-81
2022/04/24 11:18:32;;;;;;;;;32.67;29.67;;;;;;;;5077418;27;45886;-78
2022/04/24 11:20:58;;;;;;;;;25.67;21.33;;;;;;;;5088732;27;48933;-76
2022/04/24 11:23:24;;;;;;;;;28.33;26.67;;;;;;;;5068401;27;45913;-80
2022/04/24 11:25:52;;;;;;;;;36.00;33.33;;;;;;;;5082510;27;45692;-80
2022/04/24 11:28:18;;;;;;;;;30.33;29.00;;;;;;;;5076345;27;45480;-80
2022/04/24 11:30:43;;;;;;;;;36.00;31.67;;;;;;;;5078931;28;46345;-81
2022/04/24 11:33:08;;;;;;;;;17.67;17.67;;;;;;;;5058254;28;45744;-80
2022/04/24 11:35:40;;;;;;;;;3.67;3.00;;;;;;;;5094975;27;45641;-80
2022/04/24 11:38:07;;;;;;;;;19.00;16.67;;;;;;;;5081013;28;45468;-79
2022/04/24 11:40:38;;;;;;;;;23.33;21.67;;;;;;;;5080178;27;47552;-81
2022/04/24 11:43:04;;;;;;;;;25.33;22.33;;;;;;;;5062900;27;45448;-82
2022/04/24 11:51:16;;;;;;;;;21.00;20.33;;;;;;;;5086515;27;45711;-83
2022/04/24 11:53:42;;;;;;;;;17.33;16.33;;;;;;;;5038217;27;45911;-83
2022/04/24 11:56:13;;;;;;;;;18.00;16.00;;;;;;;;5073123;27;45509;-83
2022/04/24 11:58:40;;;;;;;;;18.67;18.33;;;;;;;;5098849;27;45419;-84
2022/04/24 12:01:07;;;;;;;;;20.00;18.33;;;;;;;;5082059;27;47860;-83
2022/04/24 12:03:33;;;;;;;;;24.00;17.67;;;;;;;;5066805;27;45999;-83
2022/04/24 12:05:59;;;;;;;;;17.00;14.67;;;;;;;;5081300;27;45507;-84
2022/04/24 12:08:25;;;;;;;;;13.67;13.67;;;;;;;;5065362;27;47009;-84
2022/04/24 12:10:51;;;;;;;;;19.00;17.00;;;;;;;;5070307;27;46972;-84
2022/04/24 12:13:21;;;;;;;;;14.33;14.33;;;;;;;;5084032;27;45757;-84
2022/04/24 12:15:51;;;;;;;;;17.00;15.33;;;;;;;;5081040;27;45768;-84
2022/04/24 12:18:19;;;;;;;;;19.67;17.67;;;;;;;;5058737;28;47331;-83
2022/04/24 12:20:45;;;;;;;;;16.33;15.67;;;;;;;;5058049;28;46294;-78
2022/04/24 12:23:11;;;;;;;;;21.00;18.33;;;;;;;;5055157;28;45716;-78
2022/04/24 12:25:47;;;;;;;;;15.00;14.67;;;;;;;;5073580;28;45469;-82
2022/04/24 12:28:12;;;;;;;;;21.67;19.00;;;;;;;;5078158;28;45681;-83
2022/04/24 12:30:37;;;;;;;;;18.67;18.33;;;;;;;;5056912;28;48586;-79
2022/04/24 12:33:06;;;;;;;;;21.00;15.00;;;;;;;;5072945;28;45381;-80
2022/04/24 12:35:35;;;;;;;;;21.00;17.00;;;;;;;;5084341;27;45628;-79
2022/04/24 12:38:21;;;;;;;;;11.33;10.67;;;;;;;;5079245;27;45749;-82
2022/04/24 12:40:57;;;;;;;;;11.67;11.67;;;;;;;;5037186;28;47130;-79
2022/04/24 12:43:26;;;;;;;;;15.67;13.00;;;;;;;;5061583;27;45785;-78
2022/04/24 12:45:53;;;;;;;;;16.67;16.00;;;;;;;;5073343;27;45383;-83
2022/04/24 12:48:18;;;;;;;;;15.33;14.33;;;;;;;;5075537;28;45639;-79
2022/04/24 12:50:43;;;;;;;;;17.00;16.00;;;;;;;;5060022;27;48233;-77
2022/04/24 12:53:09;;;;;;;;;14.00;14.00;;;;;;;;5054921;28;45386;-79
2022/04/24 12:55:34;;;;;;;;;14.33;14.33;;;;;;;;5055365;28;45355;-78
2022/04/24 12:57:59;;;;;;;;;14.67;12.33;;;;;;;;5054279;28;45477;-79
2022/04/24 13:00:25;;;;;;;;;12.00;12.00;;;;;;;;5074138;28;46320;-79
2022/04/24 13:02:50;;;;;;;;;17.33;16.33;;;;;;;;5054634;28;46005;-78
2022/04/24 13:05:17;;;;;;;;;12.67;12.67;;;;;;;;5060457;28;45509;-83
2022/04/24 13:07:43;;;;;;;;;16.67;13.67;;;;;;;;5076464;28;45425;-82
2022/04/24 13:10:08;;;;;;;;;17.00;17.00;;;;;;;;5075003;28;45507;-80
2022/04/24 13:12:34;;;;;;;;;14.67;14.67;;;;;;;;5062584;27;45529;-78
2022/04/24 13:14:59;;;;;;;;;15.00;14.67;;;;;;;;5089808;27;45751;-78
2022/04/24 13:20:09;;;;;;;;;15.00;14.67;;;;;;;;5087456;27;45493;-84
2022/04/24 13:22:34;;;;;;;;;10.67;10.67;;;;;;;;5092899;27;45477;-85
2022/04/24 13:25:00;;;;;;;;;13.67;13.33;;;;;;;;5090627;27;45556;-83
2022/04/24 13:27:25;;;;;;;;;15.00;12.67;;;;;;;;5090859;27;45567;-84
2022/04/24 13:29:50;;;;;;;;;12.67;12.67;;;;;;;;5075429;27;47971;-83
2022/04/24 13:32:16;;;;;;;;;11.33;11.33;;;;;;;;5078137;27;45722;-84
2022/04/24 13:40:29;;;;;;;;;11.33;9.67;;;;;;;;5094807;27;45573;-84
2022/04/24 13:42:58;;;;;;;;;14.33;14.33;;;;;;;;5059284;27;45568;-79
2022/04/24 13:45:23;;;;;;;;;16.33;13.00;;;;;;;;5054603;27;45538;-85
2022/04/24 13:47:49;;;;;;;;;18.00;14.33;;;;;;;;5082048;27;45934;-84
2022/04/24 13:50:14;;;;;;;;;12.00;12.00;;;;;;;;5080549;27;45544;-79
2022/04/24 13:52:39;;;;;;;;;19.00;19.00;;;;;;;;5071195;27;45836;-83
2022/04/24 13:55:05;;;;;;;;;16.33;13.67;;;;;;;;5080077;27;45748;-82
2022/04/24 13:57:31;;;;;;;;;11.67;9.67;;;;;;;;5091711;27;45641;-82
2022/04/24 13:59:56;;;;;;;;;14.00;13.67;;;;;;;;5071435;27;46892;-77
2022/04/24 14:02:22;;;;;;;;;15.33;14.00;;;;;;;;5085216;27;45508;-77
2022/04/24 14:04:48;;;;;;;;;11.33;11.33;;;;;;;;5070083;28;45903;-76
2022/04/24 14:07:13;;;;;;;;;16.00;14.67;;;;;;;;5059380;27;45673;-82
2022/04/24 14:09:41;;;;;;;;;16.67;15.00;;;;;;;;5066475;27;47207;-81
2022/04/24 14:12:06;;;;;;;;;13.67;13.67;;;;;;;;5080890;27;45371;-81
2022/04/24 14:14:32;;;;;;;;;17.67;15.67;;;;;;;;5074842;27;45668;-83
2022/04/24 14:16:59;;;;;;;;;11.33;11.33;;;;;;;;5069115;27;46116;-83
2022/04/24 14:19:25;;;;;;;;;12.33;10.33;;;;;;;;5068718;27;45438;-81
2022/04/24 14:21:52;;;;;;;;;12.67;12.67;;;;;;;;5063267;27;45793;-81
2022/04/24 14:24:17;;;;;;;;;11.33;11.33;;;;;;;;5059662;27;45798;-79
2022/04/24 14:26:42;;;;;;;;;14.33;12.00;;;;;;;;5073236;27;45345;-76
2022/04/24 14:29:08;;;;;;;;;14.33;13.00;;;;;;;;5072725;27;45441;-77
2022/04/24 14:31:33;;;;;;;;;14.67;13.67;;;;;;;;5073058;27;45377;-76
2022/04/24 14:33:58;;;;;;;;;15.00;15.00;;;;;;;;5075188;27;45476;-78
2022/04/24 14:36:24;;;;;;;;;12.67;11.67;;;;;;;;5073252;27;45521;-83
2022/04/24 14:38:49;;;;;;;;;14.67;14.67;;;;;;;;5059931;27;46580;-81
2022/04/24 14:41:15;;;;;;;;;19.67;17.33;;;;;;;;5067865;27;45798;-78
2022/04/24 14:43:40;;;;;;;;;15.00;15.00;;;;;;;;5068188;27;45462;-78
2022/04/24 14:57:01;;;;;;;;;18.00;15.33;;;;;;;;5081030;27;45589;-80
2022/04/24 14:59:26;;;;;;;;;19.33;19.33;;;;;;;;5073495;27;48547;-81
2022/04/24 15:01:51;;;;;;;;;16.00;15.33;;;;;;;;5084724;27;45983;-78
2022/04/24 15:04:17;;;;;;;;;16.00;13.67;;;;;;;;5090202;27;45852;-77
2022/04/24 15:07:05;;;;;;;;;18.00;16.33;;;;;;;;5081742;27;45971;-77
2022/04/24 15:09:33;;;;;;;;;20.33;18.00;;;;;;;;5032769;27;46907;-77
2022/04/24 15:11:58;;;;;;;;;18.00;15.33;;;;;;;;5083736;27;45816;-76
2022/04/24 15:14:28;;;;;;;;;18.00;16.33;;;;;;;;5081297;27;45645;-79
2022/04/24 15:16:53;;;;;;;;;21.00;17.33;;;;;;;;5068753;27;47507;-82
2022/04/24 15:19:22;;;;;;;;;14.67;13.33;;;;;;;;5087925;27;45792;-75